createdAt,value
2019-04-03T00:02:07.764Z,83.00
2019-04-03T00:04:53.800Z,82.82
2019-04-03T00:07:39.690Z,82.69
2019-04-03T00:10:25.605Z,82.49
2019-04-03T00:13:11.510Z,82.54
2019-04-03T00:15:57.426Z,81.73
2019-04-03T00:18:43.748Z,80.33
2019-04-03T00:21:32.587Z,80.00
2019-04-03T00:24:22.668Z,79.87
2019-04-03T00:27:08.949Z,80.10
2019-04-03T00:29:54.934Z,80.46
2019-04-03T00:32:40.929Z,79.94
2019-04-03T00:35:27.184Z,79.99
2019-04-03T00:38:13.497Z,79.15
2019-04-03T00:40:59.454Z,80.06
2019-04-03T00:43:45.708Z,79.54
2019-04-03T00:46:31.600Z,80.27
2019-04-03T00:49:20.813Z,79.24
2019-04-03T00:52:06.819Z,78.28
2019-04-03T00:54:53.131Z,77.41
2019-04-03T00:57:39.202Z,78.07
2019-04-03T01:00:26.470Z,77.15
2019-04-03T01:03:12.905Z,77.05
2019-04-03T01:05:59.045Z,77.66
2019-04-03T01:08:45.046Z,77.74
2019-04-03T01:11:31.126Z,77.69
2019-04-03T01:14:20.944Z,76.66
2019-04-03T01:17:07.106Z,76.85
2019-04-03T01:19:56.244Z,76.24
2019-04-03T01:22:42.615Z,75.89
2019-04-03T01:25:28.642Z,76.06
2019-04-03T01:28:14.603Z,75.08
2019-04-03T01:31:00.419Z,75.58
2019-04-03T01:33:47.190Z,74.79
2019-04-03T01:36:33.608Z,74.15
2019-04-03T01:39:21.061Z,74.16
2019-04-03T01:42:07.293Z,73.31
2019-04-03T01:44:56.419Z,73.71
2019-04-03T01:47:42.441Z,74.13
2019-04-03T01:50:30.648Z,73.38
2019-04-03T01:53:16.989Z,72.87
2019-04-03T01:56:05.745Z,71.61
2019-04-03T01:58:51.561Z,70.20
2019-04-03T02:01:38.640Z,70.91
2019-04-03T02:04:25.478Z,70.73
2019-04-03T02:07:14.163Z,70.91
2019-04-03T02:09:59.291Z,70.01
2019-04-03T02:12:45.524Z,69.55
2019-04-03T02:15:31.796Z,69.52
2019-04-03T02:18:18.009Z,69.19
2019-04-03T02:21:04.107Z,69.17
2019-04-03T02:23:49.969Z,69.36
2019-04-03T02:26:35.988Z,69.12
2019-04-03T02:29:22.205Z,68.63
2019-04-03T02:32:08.352Z,68.01
2019-04-03T02:34:54.719Z,67.41
2019-04-03T02:37:41.030Z,66.89
2019-04-03T02:40:31.202Z,67.12
2019-04-03T02:43:15.596Z,66.58
2019-04-03T02:46:01.749Z,66.53
2019-04-03T02:48:47.906Z,66.64
2019-04-03T02:51:34.011Z,66.45
2019-04-03T02:54:19.964Z,66.18
2019-04-03T02:57:06.214Z,66.54
2019-04-03T02:59:52.549Z,67.28
2019-04-03T03:02:38.770Z,66.82
2019-04-03T03:05:27.559Z,65.94
2019-04-03T03:08:12.497Z,66.48
2019-04-03T03:10:58.716Z,66.02
2019-04-03T03:13:45.466Z,66.45
2019-04-03T03:16:31.644Z,66.94
2019-04-03T03:19:17.740Z,66.20
2019-04-03T03:22:04.065Z,66.27
2019-04-03T03:24:50.232Z,66.62
2019-04-03T03:27:35.996Z,66.14
2019-04-03T03:30:42.711Z,66.69
2019-04-03T03:33:26.442Z,66.42
2019-04-03T03:36:00.294Z,66.87
2019-04-03T03:38:46.465Z,66.60
2019-04-03T03:41:33.036Z,66.97
2019-04-03T03:44:19.387Z,66.92
2019-04-03T03:47:05.455Z,66.82
2019-04-03T03:49:51.796Z,67.55
2019-04-03T03:52:38.586Z,66.62
2019-04-03T03:55:25.805Z,66.66
2019-04-03T03:58:13.508Z,66.91
2019-04-03T04:01:00.922Z,66.83
2019-04-03T04:03:47.081Z,67.09
2019-04-03T04:06:35.371Z,66.44
2019-04-03T04:09:21.324Z,67.08
2019-04-03T04:12:07.688Z,67.94
2019-04-03T04:14:56.438Z,68.40
2019-04-03T04:17:41.417Z,69.45
2019-04-03T04:20:27.865Z,70.51
2019-04-03T04:23:14.030Z,70.83
2019-04-03T04:26:01.522Z,70.72
2019-04-03T04:28:47.815Z,71.05
2019-04-03T04:31:34.200Z,71.27
2019-04-03T04:34:20.304Z,71.62
2019-04-03T04:37:06.582Z,71.08
2019-04-03T04:39:52.981Z,71.10
2019-04-03T04:42:42.108Z,72.26
2019-04-03T04:45:28.123Z,73.75
2019-04-03T04:48:16.282Z,73.30
2019-04-03T04:51:02.133Z,72.81
2019-04-03T04:53:51.193Z,73.63
2019-04-03T04:56:37.785Z,74.38
2019-04-03T04:59:24.398Z,75.08
2019-04-03T05:02:10.434Z,75.54
2019-04-03T05:04:56.731Z,74.83
2019-04-03T05:07:42.612Z,74.38
2019-04-03T05:10:29.664Z,75.39
2019-04-03T05:13:17.918Z,75.06
2019-04-03T05:16:03.986Z,76.17
2019-04-03T05:18:49.857Z,75.95
2019-04-03T05:21:36.094Z,76.21
2019-04-03T05:24:22.038Z,76.52
2019-04-03T05:27:08.449Z,76.08
2019-04-03T05:29:54.694Z,75.62
2019-04-03T05:32:43.193Z,75.32
2019-04-03T05:35:29.338Z,76.16
2019-04-03T05:38:15.547Z,76.09
2019-04-03T05:41:01.848Z,76.15
2019-04-03T05:43:47.878Z,77.45
2019-04-03T05:46:37.591Z,77.17
2019-04-03T05:49:22.982Z,75.86
2019-04-03T05:52:09.096Z,74.15
2019-04-03T05:54:55.290Z,74.17
2019-04-03T05:57:41.397Z,74.06
2019-04-03T06:00:27.591Z,75.31
2019-04-03T06:03:13.946Z,77.24
2019-04-03T06:05:59.813Z,79.17
2019-04-03T06:08:46.015Z,78.52
2019-04-03T06:11:32.002Z,79.14
2019-04-03T06:14:18.767Z,80.25
2019-04-03T06:17:05.602Z,80.02
2019-04-03T06:19:52.032Z,82.08
2019-04-03T06:22:37.969Z,82.70
2019-04-03T06:25:24.036Z,80.25
2019-04-03T06:28:13.388Z,81.42
2019-04-03T06:31:00.063Z,82.17
2019-04-03T06:33:46.645Z,81.62
2019-04-03T06:36:32.868Z,79.98
2019-04-03T06:39:22.178Z,80.73
2019-04-03T06:42:06.353Z,81.94
2019-04-03T06:44:53.859Z,81.62
2019-04-03T06:47:40.272Z,81.29
2019-04-03T06:50:26.446Z,82.27
2019-04-03T06:53:12.568Z,82.94
2019-04-03T06:55:58.802Z,83.77
2019-04-03T06:58:45.118Z,84.01
2019-04-03T07:01:31.336Z,84.52
2019-04-03T07:04:17.551Z,85.14
2019-04-03T07:07:03.471Z,85.47
2019-04-03T07:09:53.132Z,85.97
2019-04-03T07:12:39.198Z,86.12
2019-04-03T07:15:25.285Z,86.01
2019-04-03T07:18:11.670Z,86.60
2019-04-03T07:20:58.351Z,85.18
2019-04-03T07:23:44.646Z,84.81
2019-04-03T07:26:30.999Z,84.82
2019-04-03T07:29:17.488Z,84.85
2019-04-03T07:32:04.521Z,84.79
2019-04-03T07:34:53.866Z,84.83
2019-04-03T07:37:39.823Z,85.52
2019-04-03T07:40:25.794Z,86.27
2019-04-03T07:43:12.043Z,86.41
2019-04-03T07:45:58.312Z,85.76
2019-04-03T07:48:44.669Z,85.69
2019-04-03T07:51:31.037Z,84.61
2019-04-03T07:54:17.070Z,84.03
2019-04-03T07:57:02.987Z,83.84
2019-04-03T07:59:48.813Z,82.70
2019-04-03T08:02:35.892Z,82.49
2019-04-03T08:05:22.261Z,81.91
2019-04-03T08:08:08.531Z,82.17
2019-04-03T08:10:55.292Z,78.47
2019-04-03T08:13:41.317Z,77.33
2019-04-03T08:16:30.055Z,77.15
2019-04-03T08:19:16.006Z,76.67
2019-04-03T08:22:07.356Z,77.16
2019-04-03T08:24:55.933Z,76.37
2019-04-03T08:27:41.844Z,74.64
2019-04-03T08:30:28.116Z,74.17
2019-04-03T08:33:18.158Z,76.08
2019-04-03T08:36:02.725Z,74.52
2019-04-03T08:38:48.806Z,74.12
2019-04-03T08:41:36.902Z,73.58
2019-04-03T08:44:23.923Z,74.04
2019-04-03T08:47:10.227Z,74.03
2019-04-03T08:49:57.542Z,73.41
2019-04-03T08:52:46.747Z,71.77
2019-04-03T08:55:33.046Z,72.04
2019-04-03T08:58:21.207Z,72.23
2019-04-03T09:01:10.216Z,70.98
2019-04-03T09:03:56.502Z,71.19
2019-04-03T09:06:42.978Z,71.27
2019-04-03T09:09:30.032Z,71.89
2019-04-03T09:12:16.471Z,71.52
2019-04-03T09:15:02.334Z,71.29
2019-04-03T09:17:48.578Z,70.38
2019-04-03T09:20:35.997Z,70.98
2019-04-03T09:23:24.704Z,70.71
2019-04-03T09:26:10.248Z,71.43
2019-04-03T09:28:56.484Z,69.91
2019-04-03T09:31:42.417Z,70.75
2019-04-03T09:34:29.668Z,70.15
2019-04-03T09:37:18.170Z,69.61
2019-04-03T09:40:04.319Z,70.48
2019-04-03T09:42:51.575Z,71.29
2019-04-03T09:45:38.121Z,70.99
2019-04-03T09:48:24.327Z,71.14
2019-04-03T09:51:10.652Z,71.97
2019-04-03T09:53:57.887Z,71.42
2019-04-03T09:56:56.123Z,70.89
2019-04-03T09:59:32.189Z,71.05
2019-04-03T10:02:19.593Z,70.95
2019-04-03T10:05:10.000Z,71.10
2019-04-03T10:07:56.079Z,69.71
2019-04-03T10:10:42.254Z,68.16
2019-04-03T10:13:28.276Z,66.57
2019-04-03T10:16:16.407Z,67.49
2019-04-03T10:19:01.921Z,65.97
2019-04-03T10:21:47.946Z,66.68
2019-04-03T10:24:34.131Z,67.95
2019-04-03T10:27:20.231Z,68.62
2019-04-03T10:30:06.380Z,68.78
2019-04-03T10:32:52.566Z,67.77
2019-04-03T10:35:39.779Z,67.02
2019-04-03T10:38:25.849Z,66.81
2019-04-03T10:41:12.070Z,66.47
2019-04-03T10:43:58.217Z,67.01
2019-04-03T10:46:44.484Z,65.69
2019-04-03T10:49:32.422Z,66.08
2019-04-03T10:52:18.346Z,66.34
2019-04-03T10:55:04.809Z,67.07
2019-04-03T10:57:50.940Z,67.22
2019-04-03T11:00:37.211Z,67.80
2019-04-03T11:03:28.651Z,67.40
2019-04-03T11:06:14.620Z,66.21
2019-04-03T11:09:00.611Z,65.62
2019-04-03T11:11:46.702Z,65.61
2019-04-03T11:14:33.453Z,66.59
2019-04-03T11:17:19.832Z,66.74
2019-04-03T11:20:08.810Z,63.81
2019-04-03T11:23:04.105Z,64.53
2019-04-03T11:25:42.323Z,64.58
2019-04-03T11:28:28.608Z,62.70
2019-04-03T11:31:24.920Z,62.64
2019-04-03T11:34:02.771Z,61.44
2019-04-03T11:36:48.819Z,60.89
2019-04-03T11:39:37.240Z,59.98
2019-04-03T11:42:25.327Z,60.51
2019-04-03T11:45:11.224Z,58.88
2019-04-03T11:47:57.243Z,59.03
2019-04-03T11:50:43.397Z,59.81
2019-04-03T11:53:29.500Z,59.68
2019-04-03T11:56:16.409Z,56.63
2019-04-03T11:59:02.490Z,57.35
2019-04-03T12:01:48.577Z,56.70
2019-04-03T12:04:34.870Z,55.88
2019-04-03T12:07:24.443Z,55.03
2019-04-03T12:10:09.363Z,53.76
2019-04-03T12:12:56.053Z,54.02
2019-04-03T12:15:42.225Z,52.76
2019-04-03T12:18:28.427Z,52.11
2019-04-03T12:21:18.303Z,52.96
2019-04-03T12:24:03.324Z,52.67
2019-04-03T12:26:51.506Z,52.03
2019-04-03T12:29:38.059Z,50.55
2019-04-03T12:32:35.806Z,50.64
2019-04-03T12:35:11.985Z,50.18
2019-04-03T12:37:58.003Z,49.85
2019-04-03T12:40:44.205Z,50.63
2019-04-03T12:43:37.492Z,50.17
2019-04-03T12:46:40.978Z,50.24
2019-04-03T12:49:26.861Z,49.96
2019-04-03T12:52:13.209Z,49.87
2019-04-03T12:54:59.143Z,50.02
2019-04-03T12:57:45.252Z,50.61
2019-04-03T13:00:31.521Z,50.37
2019-04-03T13:03:18.041Z,50.27
2019-04-03T13:06:04.372Z,49.17
2019-04-03T13:08:50.739Z,48.68
2019-04-03T13:11:37.032Z,48.80
2019-04-03T13:15:20.945Z,48.97
2019-04-03T13:17:13.537Z,49.78
2019-04-03T13:20:05.585Z,49.51
2019-04-03T13:22:50.766Z,49.01
2019-04-03T13:25:37.723Z,48.28
2019-04-03T13:28:23.877Z,48.40
2019-04-03T13:31:09.803Z,48.40
2019-04-03T13:33:59.304Z,48.17
2019-04-03T13:36:45.541Z,47.17
2019-04-03T13:39:33.580Z,47.75
2019-04-03T13:42:22.366Z,49.80
2019-04-03T13:45:08.511Z,49.16
2019-04-03T13:47:54.455Z,49.29
2019-04-03T13:50:41.675Z,49.81
2019-04-03T13:53:28.964Z,48.85
2019-04-03T13:56:18.273Z,49.12
2019-04-03T13:59:04.724Z,50.00
2019-04-03T14:01:50.878Z,49.17
2019-04-03T14:04:37.096Z,49.14
2019-04-03T14:07:23.473Z,49.68
2019-04-03T14:10:09.989Z,48.67
2019-04-03T14:12:56.500Z,48.58
2019-04-03T14:15:43.254Z,48.40
2019-04-03T14:18:29.525Z,49.34
2019-04-03T14:21:15.444Z,49.08
2019-04-03T14:24:01.490Z,50.05
2019-04-03T14:26:47.871Z,49.43
2019-04-03T14:29:33.867Z,50.54
2019-04-03T14:32:21.730Z,49.96
2019-04-03T14:35:38.498Z,49.61
2019-04-03T14:37:58.295Z,49.76
2019-04-03T14:40:44.592Z,49.22
2019-04-03T14:43:33.625Z,50.62
2019-04-03T14:46:19.431Z,50.16
2019-04-03T14:49:05.514Z,49.86
2019-04-03T14:51:51.880Z,49.67
2019-04-03T14:54:39.323Z,48.94
2019-04-03T14:57:25.976Z,48.59
2019-04-03T15:00:25.238Z,48.08
2019-04-03T15:02:59.939Z,48.79
2019-04-03T15:05:46.006Z,48.55
2019-04-03T15:08:32.488Z,49.00
2019-04-03T15:11:20.913Z,50.19
2019-04-03T15:14:06.450Z,49.33
2019-04-03T15:16:53.021Z,49.41
2019-04-03T15:19:39.244Z,50.15
2019-04-03T15:22:25.771Z,50.20
2019-04-03T15:25:12.920Z,50.03
2019-04-03T15:28:00.461Z,51.12
2019-04-03T15:30:47.223Z,50.86
2019-04-03T15:33:33.179Z,51.26
2019-04-03T15:36:22.787Z,51.66
2019-04-03T15:39:12.085Z,51.53
2019-04-03T15:41:58.149Z,51.67
2019-04-03T15:44:44.457Z,52.25
2019-04-03T15:47:38.572Z,52.53
2019-04-03T15:50:21.258Z,52.32
2019-04-03T15:53:07.345Z,52.96
2019-04-03T15:55:53.455Z,52.34
2019-04-03T15:58:39.621Z,51.77
2019-04-03T16:01:25.926Z,51.33
2019-04-03T16:04:12.496Z,51.22
2019-04-03T16:07:00.666Z,50.99
2019-04-03T16:09:49.536Z,51.39
2019-04-03T16:12:35.771Z,52.53
2019-04-03T16:15:24.142Z,51.79
2019-04-03T16:18:10.674Z,52.48
2019-04-03T16:20:56.573Z,51.58
2019-04-03T16:23:42.709Z,51.78
2019-04-03T16:26:29.017Z,52.11
2019-04-03T16:29:15.321Z,52.83
2019-04-03T16:32:01.816Z,52.39
2019-04-03T16:34:48.409Z,52.25
2019-04-03T16:37:34.766Z,52.36
2019-04-03T16:40:21.370Z,53.18
2019-04-03T16:43:07.970Z,52.47
2019-04-03T16:45:54.141Z,53.87
2019-04-03T16:48:40.112Z,52.81
2019-04-03T16:51:26.823Z,53.11
2019-04-03T16:54:14.306Z,53.55
2019-04-03T16:57:02.311Z,53.93
2019-04-03T16:59:47.875Z,53.49
2019-04-03T17:02:34.329Z,53.60
2019-04-03T17:05:20.878Z,53.97
2019-04-03T17:08:09.118Z,53.91
2019-04-03T17:10:55.106Z,53.49
2019-04-03T17:13:41.322Z,54.08
2019-04-03T17:16:30.083Z,54.31
2019-04-03T17:19:17.565Z,54.46
2019-04-03T17:22:06.670Z,55.05
2019-04-03T17:24:54.513Z,55.51
2019-04-03T17:27:39.464Z,55.02
2019-04-03T17:30:26.179Z,55.57
2019-04-03T17:33:12.074Z,55.71
2019-04-03T17:35:58.162Z,55.97
2019-04-03T17:38:47.176Z,56.18
2019-04-03T17:41:32.596Z,56.87
2019-04-03T17:44:18.444Z,57.39
2019-04-03T17:47:04.627Z,58.06
2019-04-03T17:49:50.507Z,58.07
2019-04-03T17:52:37.381Z,58.44
2019-04-03T17:55:23.691Z,58.71
2019-04-03T17:58:12.612Z,58.01
2019-04-03T18:00:58.532Z,58.35
2019-04-03T18:03:44.810Z,58.27
2019-04-03T18:06:30.774Z,58.49
2019-04-03T18:09:16.708Z,58.77
2019-04-03T18:12:02.750Z,58.58
2019-04-03T18:14:48.984Z,58.49
2019-04-03T18:17:35.328Z,58.12
2019-04-03T18:20:21.299Z,58.04
2019-04-03T18:23:10.488Z,58.21
2019-04-03T18:25:59.367Z,58.57
2019-04-03T18:28:45.718Z,58.96
2019-04-03T18:31:31.670Z,58.82
2019-04-03T18:34:19.711Z,58.75
2019-04-03T18:37:07.447Z,59.28
2019-04-03T18:39:53.666Z,59.79
2019-04-03T18:42:39.649Z,60.06
2019-04-03T18:45:25.961Z,60.18
2019-04-03T18:48:12.570Z,60.48
2019-04-03T18:50:58.461Z,60.58
2019-04-03T18:53:44.930Z,60.76
2019-04-03T18:56:32.198Z,60.77
2019-04-03T18:59:18.396Z,60.65
2019-04-03T19:02:04.798Z,61.81
2019-04-03T19:05:01.717Z,61.18
2019-04-03T19:07:41.574Z,61.50
2019-04-03T19:10:27.495Z,61.77
2019-04-03T19:13:13.942Z,61.80
2019-04-03T19:16:02.424Z,62.39
2019-04-03T19:18:48.572Z,62.65
2019-04-03T19:21:35.261Z,63.07
2019-04-03T19:24:24.436Z,63.41
2019-04-03T19:27:09.151Z,63.74
2019-04-03T19:29:55.113Z,64.06
2019-04-03T19:32:42.929Z,64.58
2019-04-03T19:35:29.071Z,64.86
2019-04-03T19:38:15.236Z,64.87
2019-04-03T19:41:01.173Z,65.02
2019-04-03T19:43:47.114Z,65.14
2019-04-03T19:46:33.306Z,65.62
2019-04-03T19:49:19.309Z,66.11
2019-04-03T19:52:08.478Z,65.78
2019-04-03T19:54:54.970Z,65.85
2019-04-03T19:57:41.885Z,66.24
2019-04-03T20:00:28.106Z,66.65
2019-04-03T20:03:14.718Z,66.71
2019-04-03T20:06:01.088Z,66.34
2019-04-03T20:08:47.044Z,66.06
2019-04-03T20:11:34.091Z,65.11
2019-04-03T20:14:21.143Z,64.99
2019-04-03T20:17:07.101Z,64.34
2019-04-03T20:19:53.054Z,61.89
2019-04-03T20:22:42.289Z,61.67
2019-04-03T20:25:27.065Z,60.42
2019-04-03T20:28:13.177Z,60.08
2019-04-03T20:30:59.821Z,59.31
2019-04-03T20:33:46.033Z,59.18
2019-04-03T20:36:31.939Z,59.08
2019-04-03T20:39:17.862Z,58.83
2019-04-03T20:42:07.345Z,58.52
2019-04-03T20:44:51.533Z,58.57
2019-04-03T20:47:37.695Z,58.52
2019-04-03T20:50:23.668Z,58.53
2019-04-03T20:53:09.643Z,58.72
2019-04-03T20:55:57.981Z,58.65
2019-04-03T20:58:55.286Z,59.11
2019-04-03T21:01:31.751Z,60.50
2019-04-03T21:04:17.882Z,62.05
2019-04-03T21:07:06.213Z,62.91
2019-04-03T21:09:52.473Z,63.95
2019-04-03T21:12:38.721Z,64.83
2019-04-03T21:15:25.058Z,65.35
2019-04-03T21:18:11.368Z,66.01
2019-04-03T21:20:57.597Z,65.76
2019-04-03T21:23:43.997Z,65.54
2019-04-03T21:26:30.006Z,65.60
2019-04-03T21:29:17.324Z,66.07
2019-04-03T21:32:03.279Z,66.29
2019-04-03T21:34:49.269Z,66.93
2019-04-03T21:37:35.117Z,67.18
2019-04-03T21:40:21.167Z,67.45
2019-04-03T21:43:07.618Z,67.85
2019-04-03T21:45:54.023Z,68.35
2019-04-03T21:48:39.941Z,68.52
2019-04-03T21:51:25.934Z,68.70
2019-04-03T21:54:12.163Z,68.84
2019-04-03T21:56:59.378Z,69.26
2019-04-03T21:59:45.346Z,69.18
2019-04-03T22:02:31.587Z,69.25
2019-04-03T22:05:17.591Z,68.94
2019-04-03T22:08:03.830Z,68.93
2019-04-03T22:10:50.585Z,69.17
2019-04-03T22:13:38.390Z,69.47
2019-04-03T22:16:25.294Z,69.14
2019-04-03T22:19:11.237Z,69.46
2019-04-03T22:21:57.412Z,69.70
2019-04-03T22:24:43.399Z,69.84
2019-04-03T22:27:29.549Z,69.85
2019-04-03T22:30:15.466Z,70.00
2019-04-03T22:33:04.618Z,70.15
2019-04-03T22:35:50.564Z,70.13
2019-04-03T22:38:37.252Z,70.21
2019-04-03T22:41:23.571Z,70.31
2019-04-03T22:44:10.280Z,70.50
2019-04-03T22:46:56.389Z,70.45
2019-04-03T22:49:42.701Z,70.46
2019-04-03T22:52:28.804Z,70.31
2019-04-03T22:55:15.427Z,70.28
2019-04-03T22:58:01.963Z,70.26
2019-04-03T23:00:47.926Z,70.33
2019-04-03T23:03:34.895Z,70.35
2019-04-03T23:06:24.156Z,70.58
2019-04-03T23:09:10.259Z,70.54
2019-04-03T23:11:56.234Z,70.59
2019-04-03T23:14:45.318Z,71.00
2019-04-03T23:17:31.383Z,71.21
2019-04-03T23:20:17.415Z,70.63
2019-04-03T23:23:03.527Z,70.69
2019-04-03T23:25:49.905Z,70.83
2019-04-03T23:28:38.841Z,71.13
2019-04-03T23:31:24.784Z,71.03
2019-04-03T23:34:11.159Z,70.92
2019-04-03T23:36:57.302Z,71.01
2019-04-03T23:39:43.257Z,71.04
2019-04-03T23:42:29.633Z,71.46
2019-04-03T23:45:16.421Z,71.80
2019-04-03T23:48:02.444Z,71.64
2019-04-03T23:50:48.507Z,71.71
2019-04-03T23:53:34.784Z,71.91
2019-04-03T23:56:20.797Z,71.77
2019-04-03T23:59:06.706Z,71.92
